createdAt,value
2023-04-18T00:03:45.879Z,101152.63
2023-04-18T00:08:48.071Z,101146.94
2023-04-18T00:13:49.695Z,101146.72
2023-04-18T00:18:52.570Z,101145.00
2023-04-18T00:23:54.235Z,101151.13
2023-04-18T00:28:56.135Z,101141.13
2023-04-18T00:33:57.741Z,101144.53
2023-04-18T00:38:59.413Z,101143.56
2023-04-18T00:44:01.158Z,101143.56
2023-04-18T00:49:02.789Z,101143.38
2023-04-18T00:54:06.748Z,101138.66
2023-04-18T00:59:09.513Z,101131.00
2023-04-18T01:04:11.278Z,101129.56
2023-04-18T01:09:15.954Z,101126.53
2023-04-18T01:14:20.430Z,101127.91
2023-04-18T01:19:23.143Z,101131.44
2023-04-18T01:24:26.810Z,101132.19
2023-04-18T01:29:28.855Z,101131.34
2023-04-18T01:34:31.767Z,101130.47
2023-04-18T01:39:33.578Z,101118.97
2023-04-18T01:44:35.380Z,101120.94
2023-04-18T01:49:37.101Z,101119.22
2023-04-18T01:54:38.792Z,101126.53
2023-04-18T01:59:40.545Z,101123.22
2023-04-18T02:04:42.219Z,101135.69
2023-04-18T02:09:44.863Z,101125.03
2023-04-18T02:14:51.566Z,101132.25
2023-04-18T02:19:53.131Z,101120.00
2023-04-18T02:24:54.803Z,101111.44
2023-04-18T02:29:56.625Z,101127.56
2023-04-18T02:34:58.349Z,101133.03
2023-04-18T02:40:00.051Z,101125.72
2023-04-18T02:45:06.138Z,101127.66
2023-04-18T02:50:08.381Z,101124.25
2023-04-18T02:55:11.798Z,101130.59
2023-04-18T03:00:16.947Z,101132.31
2023-04-18T03:05:30.525Z,101135.09
2023-04-18T03:10:35.041Z,101143.47
2023-04-18T03:15:37.430Z,101143.72
2023-04-18T03:20:41.361Z,101138.16
2023-04-18T03:25:43.317Z,101136.44
2023-04-18T03:30:45.655Z,101148.91
2023-04-18T03:35:47.387Z,101144.94
2023-04-18T03:40:49.274Z,101141.97
2023-04-18T03:45:58.943Z,101144.34
2023-04-18T03:51:02.094Z,101145.69
2023-04-18T03:56:05.917Z,101140.34
2023-04-18T04:01:27.868Z,101159.34
2023-04-18T04:06:29.950Z,101151.72
2023-04-18T04:11:31.641Z,101156.00
2023-04-18T04:16:33.863Z,101176.84
2023-04-18T04:21:36.530Z,101164.50
2023-04-18T04:26:40.219Z,101162.56
2023-04-18T04:31:47.202Z,101176.06
2023-04-18T04:36:54.778Z,101175.00
2023-04-18T04:41:58.140Z,101182.28
2023-04-18T04:47:04.592Z,101188.84
2023-04-18T04:52:10.960Z,101189.91
2023-04-18T04:57:12.903Z,101203.09
2023-04-18T05:02:15.151Z,101209.41
2023-04-18T05:07:16.934Z,101202.13
2023-04-18T05:12:18.616Z,101203.97
2023-04-18T05:17:20.304Z,101205.03
2023-04-18T05:22:21.976Z,101206.63
2023-04-18T05:27:23.874Z,101207.91
2023-04-18T05:32:25.593Z,101210.00
2023-04-18T05:37:27.365Z,101204.66
2023-04-18T05:42:28.988Z,101214.31
2023-04-18T05:47:30.784Z,101223.91
2023-04-18T05:52:32.557Z,101225.50
2023-04-18T05:57:34.260Z,101222.66
2023-04-18T06:02:44.678Z,101225.66
2023-04-18T06:07:50.403Z,101223.94
2023-04-18T06:12:52.069Z,101228.84
2023-04-18T06:18:05.644Z,101233.75
2023-04-18T06:23:27.201Z,101240.19
2023-04-18T06:28:29.102Z,101241.91
2023-04-18T06:33:31.227Z,101255.50
2023-04-18T06:38:33.463Z,101260.88
2023-04-18T06:43:36.158Z,101259.41
2023-04-18T06:48:37.773Z,101266.78
2023-04-18T06:53:39.732Z,101242.16
2023-04-18T06:58:41.358Z,101247.09
2023-04-18T07:03:43.145Z,101257.63
2023-04-18T07:08:45.070Z,101244.44
2023-04-18T07:13:48.725Z,101247.31
2023-04-18T07:18:51.763Z,101250.00
2023-04-18T07:23:53.487Z,101247.31
2023-04-18T07:28:55.169Z,101271.44
2023-04-18T07:33:57.405Z,101268.97
2023-04-18T07:38:59.031Z,101268.75
2023-04-18T07:44:03.988Z,101273.16
2023-04-18T07:49:06.143Z,101274.66
2023-04-18T07:54:08.307Z,101271.59
2023-04-18T07:59:09.927Z,101277.41
2023-04-18T08:04:12.015Z,101267.66
2023-04-18T08:09:14.144Z,101273.56
2023-04-18T08:14:16.182Z,101273.50
2023-04-18T08:19:17.886Z,101268.47
2023-04-18T08:24:19.606Z,101269.53
2023-04-18T08:29:21.220Z,101273.41
2023-04-18T08:34:23.523Z,101273.31
2023-04-18T08:39:25.440Z,101276.47
2023-04-18T08:44:30.635Z,101275.50
2023-04-18T08:49:32.327Z,101269.28
2023-04-18T08:54:34.535Z,101277.00
2023-04-18T08:59:36.321Z,101294.50
2023-04-18T09:04:39.846Z,101283.34
2023-04-18T09:09:51.520Z,101289.56
2023-04-18T09:14:57.965Z,101282.38
2023-04-18T09:20:01.196Z,101282.38
2023-04-18T09:25:02.882Z,101276.06
2023-04-18T09:30:05.608Z,101278.41
2023-04-18T09:35:07.598Z,101289.16
2023-04-18T09:40:19.161Z,101277.13
2023-04-18T09:45:21.654Z,101285.16
2023-04-18T09:50:23.390Z,101285.06
2023-04-18T09:55:25.300Z,101286.91
2023-04-18T10:00:28.209Z,101283.25
2023-04-18T10:05:34.965Z,101282.16
2023-04-18T10:10:38.574Z,101287.22
2023-04-18T10:15:42.388Z,101281.19
2023-04-18T10:20:46.941Z,101288.72
2023-04-18T10:25:49.410Z,101290.22
2023-04-18T10:30:53.131Z,101287.44
2023-04-18T10:36:17.312Z,101287.66
2023-04-18T10:41:22.253Z,101281.31
2023-04-18T10:46:31.831Z,101280.13
2023-04-18T10:51:34.366Z,101282.69
2023-04-18T10:56:36.868Z,101285.06
2023-04-18T11:01:41.069Z,101274.09
2023-04-18T11:06:56.074Z,101275.63
2023-04-18T11:12:06.518Z,101282.81
2023-04-18T11:17:28.764Z,101279.69
2023-04-18T11:22:31.111Z,101283.03
2023-04-18T11:27:32.767Z,101278.41
2023-04-18T11:32:35.460Z,101284.84
2023-04-18T11:37:38.715Z,101277.94
2023-04-18T11:42:41.049Z,101282.22
2023-04-18T11:47:46.214Z,101283.94
2023-04-18T11:52:50.894Z,101289.09
2023-04-18T11:57:57.442Z,101290.47
2023-04-18T12:02:59.891Z,101283.91
2023-04-18T12:08:20.453Z,101291.00
2023-04-18T12:13:27.104Z,101289.28
2023-04-18T12:18:29.934Z,101284.75
2023-04-18T12:23:38.931Z,101281.88
2023-04-18T12:28:45.003Z,101285.19
2023-04-18T12:33:46.608Z,101287.78
2023-04-18T12:38:49.202Z,101288.00
2023-04-18T12:43:51.032Z,101284.75
2023-04-18T12:48:52.649Z,101278.41
2023-04-18T12:53:54.594Z,101277.44
2023-04-18T12:58:56.400Z,101286.13
2023-04-18T13:04:10.902Z,101283.44
2023-04-18T13:09:14.023Z,101281.50
2023-04-18T13:14:16.192Z,101275.25
2023-04-18T13:19:17.826Z,101276.13
2023-04-18T13:24:19.483Z,101267.94
2023-04-18T13:29:21.134Z,101268.56
2023-04-18T13:34:22.812Z,101274.34
2023-04-18T13:39:24.890Z,101275.72
2023-04-18T13:44:26.780Z,101275.50
2023-04-18T13:49:28.605Z,101282.59
2023-04-18T13:54:32.172Z,101279.44
2023-04-18T13:59:34.099Z,101274.56
2023-04-18T14:04:36.625Z,101272.34
2023-04-18T14:09:38.323Z,101271.97
2023-04-18T14:14:39.948Z,101276.50
2023-04-18T14:19:41.629Z,101281.53
2023-04-18T14:24:43.304Z,101273.84
2023-04-18T14:29:44.923Z,101276.19
2023-04-18T14:34:46.571Z,101277.66
2023-04-18T14:39:48.674Z,101273.75
2023-04-18T14:44:50.277Z,101265.69
2023-04-18T14:49:51.868Z,101257.63
2023-04-18T14:54:53.488Z,101263.97
2023-04-18T14:59:55.125Z,101265.34
2023-04-18T15:04:56.820Z,101262.16
2023-04-18T15:09:58.595Z,101264.50
2023-04-18T15:15:00.552Z,101257.63
2023-04-18T15:20:02.214Z,101258.75
2023-04-18T15:25:05.132Z,101256.66
2023-04-18T15:30:08.271Z,101259.47
2023-04-18T15:35:10.601Z,101262.28
2023-04-18T15:40:16.412Z,101254.22
2023-04-18T15:45:18.564Z,101263.88
2023-04-18T15:50:20.516Z,101254.81
2023-04-18T15:55:22.160Z,101258.13
2023-04-18T16:00:23.848Z,101254.47
2023-04-18T16:05:25.520Z,101253.53
2023-04-18T16:10:27.128Z,101253.63
2023-04-18T16:15:30.856Z,101251.03
2023-04-18T16:20:33.472Z,101263.66
2023-04-18T16:25:35.318Z,101260.84
2023-04-18T16:30:37.584Z,101258.03
2023-04-18T16:35:40.144Z,101249.00
2023-04-18T16:40:41.892Z,101251.78
2023-04-18T16:45:43.639Z,101248.34
2023-04-18T16:50:45.787Z,101249.19
2023-04-18T16:55:47.469Z,101251.91
2023-04-18T17:00:49.431Z,101253.72
2023-04-18T17:05:51.080Z,101255.44
2023-04-18T17:10:52.904Z,101255.25
2023-04-18T17:15:54.697Z,101257.69
2023-04-18T17:20:56.481Z,101267.47
2023-04-18T17:25:58.111Z,101263.81
2023-04-18T17:31:01.395Z,101267.38
2023-04-18T17:36:06.297Z,101266.38
2023-04-18T17:41:08.079Z,101260.25
2023-04-18T17:46:09.752Z,101265.66
2023-04-18T17:51:11.495Z,101259.41
2023-04-18T17:56:13.324Z,101263.94
2023-04-18T18:01:16.176Z,101256.72
2023-04-18T18:06:17.853Z,101264.91
2023-04-18T18:11:19.596Z,101270.19
2023-04-18T18:16:22.774Z,101273.00
2023-04-18T18:21:24.530Z,101273.13
2023-04-18T18:26:26.596Z,101273.97
2023-04-18T18:31:28.298Z,101268.59
2023-04-18T18:36:31.456Z,101276.78
2023-04-18T18:41:33.084Z,101276.00
2023-04-18T18:46:35.407Z,101276.25
2023-04-18T18:51:37.197Z,101282.63
2023-04-18T18:56:39.999Z,101282.63
2023-04-18T19:01:41.924Z,101283.34
2023-04-18T19:06:43.630Z,101280.66
2023-04-18T19:11:45.304Z,101289.72
2023-04-18T19:16:46.914Z,101285.19
2023-04-18T19:21:48.537Z,101282.38
2023-04-18T19:26:50.193Z,101278.69
2023-04-18T19:31:51.949Z,101268.78
2023-04-18T19:36:53.644Z,101279.34
2023-04-18T19:41:55.290Z,101275.44
2023-04-18T19:47:01.688Z,101261.75
2023-04-18T19:52:03.410Z,101268.72
2023-04-18T19:57:06.310Z,101264.19
2023-04-18T20:02:12.763Z,101269.34
2023-04-18T20:07:21.753Z,101264.56
2023-04-18T20:12:24.405Z,101255.50
2023-04-18T20:17:34.451Z,101255.38
2023-04-18T20:22:41.848Z,101263.34
2023-04-18T20:27:54.418Z,101256.97
2023-04-18T20:32:58.978Z,101253.31
2023-04-18T20:38:09.201Z,101251.47
2023-04-18T20:43:11.233Z,101237.16
2023-04-18T20:48:12.889Z,101246.22
2023-04-18T20:53:18.821Z,101252.56
2023-04-18T20:58:20.719Z,101248.16
2023-04-18T21:03:26.814Z,101241.91
2023-04-18T21:08:31.752Z,101250.13
2023-04-18T21:13:36.896Z,101240.31
2023-04-18T21:18:40.456Z,101234.94
2023-04-18T21:23:43.181Z,101236.66
2023-04-18T21:29:03.325Z,101224.28
2023-04-18T21:34:05.444Z,101226.13
2023-04-18T21:39:08.312Z,101225.38
2023-04-18T21:44:13.956Z,101220.00
2023-04-18T21:49:16.045Z,101216.44
2023-04-18T21:54:17.790Z,101212.16
2023-04-18T21:59:19.414Z,101204.09
2023-04-18T22:04:24.121Z,101205.19
2023-04-18T22:09:25.980Z,101194.53
2023-04-18T22:14:28.294Z,101193.81
2023-04-18T22:19:31.284Z,101197.47
2023-04-18T22:24:32.930Z,101194.91
2023-04-18T22:29:34.525Z,101187.06
2023-04-18T22:34:36.154Z,101177.25
2023-04-18T22:39:37.774Z,101181.03
2023-04-18T22:44:39.440Z,101179.44
2023-04-18T22:49:42.021Z,101181.41
2023-04-18T22:54:43.674Z,101168.06
2023-04-18T22:59:45.410Z,101174.31
2023-04-18T23:04:47.435Z,101172.47
2023-04-18T23:09:49.151Z,101158.16
2023-04-18T23:14:50.799Z,101166.22
2023-04-18T23:19:52.476Z,101163.53
2023-04-18T23:24:55.116Z,101156.31
2023-04-18T23:29:56.735Z,101158.88
2023-04-18T23:34:58.440Z,101157.78
2023-04-18T23:40:00.548Z,101148.13
2023-04-18T23:45:03.964Z,101139.78
2023-04-18T23:50:06.069Z,101138.19
2023-04-18T23:55:08.093Z,101139.53
